createdAt,value
2023-05-10T00:01:55.445Z,96414.16
2023-05-10T00:04:42.478Z,96402.78
2023-05-10T00:07:29.148Z,96397.09
2023-05-10T00:10:16.181Z,96400.06
2023-05-10T00:13:03.163Z,96396.00
2023-05-10T00:15:49.922Z,96393.59
2023-05-10T00:18:36.608Z,96391.41
2023-05-10T00:21:23.351Z,96388.44
2023-05-10T00:24:10.088Z,96390.34
2023-05-10T00:26:56.785Z,96376.56
2023-05-10T00:29:43.446Z,96380.63
2023-05-10T00:32:30.224Z,96374.66
2023-05-10T00:35:17.048Z,96368.72
2023-05-10T00:38:03.732Z,96372.78
2023-05-10T00:40:50.847Z,96374.41
2023-05-10T00:43:37.515Z,96376.28
2023-05-10T00:46:24.287Z,96373.31
2023-05-10T00:49:11.006Z,96368.19
2023-05-10T00:51:58.067Z,96367.66
2023-05-10T00:54:44.791Z,96361.97
2023-05-10T00:57:31.489Z,96363.31
2023-05-10T01:00:19.246Z,96364.69
2023-05-10T01:03:06.059Z,96361.44
2023-05-10T01:05:52.832Z,96360.06
2023-05-10T01:08:39.826Z,96361.44
2023-05-10T01:11:26.749Z,96360.09
2023-05-10T01:14:13.538Z,96362.25
2023-05-10T01:17:00.231Z,96366.31
2023-05-10T01:19:47.068Z,96365.75
2023-05-10T01:22:46.023Z,96367.91
2023-05-10T01:25:51.630Z,96366.28
2023-05-10T01:28:56.101Z,96364.13
2023-05-10T01:31:57.006Z,96369.81
2023-05-10T01:34:46.033Z,96364.94
2023-05-10T01:37:52.984Z,96366.28
2023-05-10T01:40:59.942Z,96373.06
2023-05-10T01:43:52.868Z,96371.69
2023-05-10T01:46:39.944Z,96374.66
2023-05-10T01:49:28.155Z,96379.50
2023-05-10T01:52:15.340Z,96378.94
2023-05-10T01:55:03.413Z,96384.63
2023-05-10T01:57:52.424Z,96381.34
2023-05-10T02:00:41.023Z,96380.81
2023-05-10T02:03:28.234Z,96382.16
2023-05-10T02:06:15.406Z,96375.41
2023-05-10T02:09:02.403Z,96374.88
2023-05-10T02:11:49.330Z,96375.69
2023-05-10T02:14:37.188Z,96372.41
2023-05-10T02:17:24.174Z,96370.28
2023-05-10T02:20:11.333Z,96368.91
2023-05-10T02:22:58.231Z,96368.09
2023-05-10T02:25:45.036Z,96367.53
2023-05-10T02:28:31.773Z,96367.03
2023-05-10T02:31:18.644Z,96359.16
2023-05-10T02:34:05.339Z,96365.66
2023-05-10T02:36:52.053Z,96367.00
2023-05-10T02:39:39.448Z,96375.38
2023-05-10T02:42:27.230Z,96373.75
2023-05-10T02:45:14.632Z,96375.09
2023-05-10T02:48:01.598Z,96372.91
2023-05-10T02:50:52.208Z,96378.59
2023-05-10T02:53:39.687Z,96378.59
2023-05-10T02:56:26.862Z,96368.31
2023-05-10T02:59:13.621Z,96370.47
2023-05-10T03:02:01.341Z,96365.59
2023-05-10T03:04:48.214Z,96363.16
2023-05-10T03:07:34.934Z,96366.94
2023-05-10T03:10:22.977Z,96359.63
2023-05-10T03:13:27.512Z,96359.09
2023-05-10T03:16:16.526Z,96358.28
2023-05-10T03:19:08.019Z,96362.31
2023-05-10T03:21:55.298Z,96365.28
2023-05-10T03:24:42.216Z,96372.03
2023-05-10T03:27:28.971Z,96378.75
2023-05-10T03:30:16.022Z,96372.53
2023-05-10T03:33:08.828Z,96377.38
2023-05-10T03:35:55.586Z,96380.34
2023-05-10T03:38:42.366Z,96379.25
2023-05-10T03:41:29.585Z,96379.50
2023-05-10T03:44:16.268Z,96381.66
2023-05-10T03:47:03.100Z,96383.81
2023-05-10T03:49:49.891Z,96381.38
2023-05-10T03:52:36.686Z,96394.31
2023-05-10T03:55:23.657Z,96389.19
2023-05-10T03:58:13.272Z,96390.75
2023-05-10T04:00:59.946Z,96394.53
2023-05-10T04:03:46.815Z,96387.78
2023-05-10T04:06:33.974Z,96395.06
2023-05-10T04:09:20.839Z,96390.19
2023-05-10T04:12:10.110Z,96393.94
2023-05-10T04:14:58.305Z,96395.28
2023-05-10T04:17:45.365Z,96390.13
2023-05-10T04:20:33.297Z,96393.38
2023-05-10T04:23:20.003Z,96395.50
2023-05-10T04:26:06.731Z,96401.97
2023-05-10T04:28:53.426Z,96402.22
2023-05-10T04:31:40.269Z,96404.38
2023-05-10T04:34:26.976Z,96404.63
2023-05-10T04:37:13.673Z,96405.97
2023-05-10T04:40:01.135Z,96410.81
2023-05-10T04:42:47.838Z,96404.59
2023-05-10T04:45:34.584Z,96412.13
2023-05-10T04:48:21.470Z,96415.38
2023-05-10T04:51:08.202Z,96411.28
2023-05-10T04:54:05.195Z,96416.94
2023-05-10T04:56:53.052Z,96423.66
2023-05-10T04:59:39.974Z,96421.22
2023-05-10T05:02:26.739Z,96424.41
2023-05-10T05:05:13.682Z,96422.81
2023-05-10T05:08:00.378Z,96416.88
2023-05-10T05:10:47.106Z,96429.78
2023-05-10T05:13:33.868Z,96427.34
2023-05-10T05:16:20.614Z,96436.50
2023-05-10T05:19:07.327Z,96439.47
2023-05-10T05:21:54.286Z,96433.78
2023-05-10T05:24:41.010Z,96446.66
2023-05-10T05:27:28.823Z,96452.59
2023-05-10T05:30:15.870Z,96460.38
2023-05-10T05:33:02.871Z,96458.72
2023-05-10T05:35:51.773Z,96467.03
2023-05-10T05:38:38.530Z,96462.91
2023-05-10T05:41:25.599Z,96459.56
2023-05-10T05:44:12.322Z,96461.22
2023-05-10T05:46:59.022Z,96456.16
2023-05-10T05:49:48.393Z,96471.00
2023-05-10T05:52:35.061Z,96467.25
2023-05-10T05:55:22.310Z,96472.88
2023-05-10T05:58:08.975Z,96472.34
2023-05-10T06:00:55.678Z,96476.53
2023-05-10T06:03:42.550Z,96483.81
2023-05-10T06:06:29.342Z,96480.00
2023-05-10T06:09:16.104Z,96485.09
2023-05-10T06:12:02.784Z,96489.13
2023-05-10T06:14:49.516Z,96485.03
2023-05-10T06:17:36.256Z,96491.75
2023-05-10T06:20:22.958Z,96496.59
2023-05-10T06:23:09.651Z,96496.00
2023-05-10T06:25:56.303Z,96493.81
2023-05-10T06:28:43.180Z,96499.47
2023-05-10T06:31:29.896Z,96502.66
2023-05-10T06:34:16.559Z,96509.91
2023-05-10T06:37:04.551Z,96513.66
2023-05-10T06:39:51.249Z,96509.34
2023-05-10T06:42:38.023Z,96518.50
2023-05-10T06:45:24.760Z,96518.50
2023-05-10T06:48:11.586Z,96510.91
2023-05-10T06:50:58.321Z,96518.19
2023-05-10T06:53:44.999Z,96523.00
2023-05-10T06:56:32.041Z,96526.75
2023-05-10T06:59:20.206Z,96527.03
2023-05-10T07:02:07.258Z,96522.13
2023-05-10T07:04:54.264Z,96529.41
2023-05-10T07:07:41.282Z,96534.19
2023-05-10T07:10:27.986Z,96537.97
2023-05-10T07:13:14.818Z,96541.72
2023-05-10T07:16:02.984Z,96532.28
2023-05-10T07:18:51.360Z,96539.53
2023-05-10T07:21:38.439Z,96546.78
2023-05-10T07:24:25.341Z,96543.53
2023-05-10T07:27:12.018Z,96550.78
2023-05-10T07:29:59.639Z,96555.38
2023-05-10T07:32:46.384Z,96549.16
2023-05-10T07:35:33.207Z,96549.41
2023-05-10T07:38:19.900Z,96552.34
2023-05-10T07:41:06.798Z,96562.31
2023-05-10T07:43:53.506Z,96555.28
2023-05-10T07:46:40.355Z,96564.16
2023-05-10T07:49:27.113Z,96560.66
2023-05-10T07:52:14.664Z,96569.53
2023-05-10T07:55:01.439Z,96561.47
2023-05-10T07:57:48.540Z,96560.66
2023-05-10T08:00:35.361Z,96569.00
2023-05-10T08:03:22.126Z,96559.84
2023-05-10T08:06:08.823Z,96566.03
2023-05-10T08:08:55.695Z,96562.31
2023-05-10T08:11:42.461Z,96566.63
2023-05-10T08:14:29.724Z,96563.66
2023-05-10T08:17:17.688Z,96574.19
2023-05-10T08:20:05.734Z,96575.00
2023-05-10T08:22:52.405Z,96565.06
2023-05-10T08:25:39.107Z,96573.72
2023-05-10T08:28:25.802Z,96569.13
2023-05-10T08:31:13.204Z,96572.63
2023-05-10T08:33:59.954Z,96577.75
2023-05-10T08:36:46.652Z,96580.44
2023-05-10T08:39:36.385Z,96582.09
2023-05-10T08:42:23.166Z,96585.59
2023-05-10T08:45:10.310Z,96586.16
2023-05-10T08:47:57.097Z,96588.63
2023-05-10T08:50:46.757Z,96592.66
2023-05-10T08:53:34.200Z,96589.75
2023-05-10T08:56:21.301Z,96594.06
2023-05-10T08:59:08.118Z,96606.44
2023-05-10T09:01:55.037Z,96604.56
2023-05-10T09:04:42.083Z,96599.19
2023-05-10T09:07:28.862Z,96599.19
2023-05-10T09:10:15.651Z,96602.13
2023-05-10T09:13:02.389Z,96604.00
2023-05-10T09:15:49.079Z,96608.31
2023-05-10T09:18:35.798Z,96611.81
2023-05-10T09:21:22.565Z,96613.72
2023-05-10T09:24:09.339Z,96612.91
2023-05-10T09:26:56.149Z,96611.03
2023-05-10T09:29:43.438Z,96614.53
2023-05-10T09:32:39.490Z,96616.16
2023-05-10T09:35:29.438Z,96618.88
2023-05-10T09:38:16.928Z,96614.28
2023-05-10T09:41:03.640Z,96616.16
2023-05-10T09:43:50.600Z,96618.88
2023-05-10T09:46:37.963Z,96616.97
2023-05-10T09:49:24.766Z,96624.00
2023-05-10T09:52:11.688Z,96616.72
2023-05-10T09:54:58.438Z,96622.38
2023-05-10T09:57:45.178Z,96617.78
2023-05-10T10:00:35.760Z,96619.69
2023-05-10T10:03:22.478Z,96620.50
2023-05-10T10:06:18.915Z,96620.22
2023-05-10T10:09:13.639Z,96616.50
2023-05-10T10:12:01.058Z,96618.91
2023-05-10T10:14:48.912Z,96618.91
2023-05-10T10:17:36.634Z,96618.66
2023-05-10T10:20:23.742Z,96613.84
2023-05-10T10:23:10.677Z,96613.59
2023-05-10T10:25:57.591Z,96614.19
2023-05-10T10:28:50.178Z,96610.19
2023-05-10T10:31:57.186Z,96605.34
2023-05-10T10:34:43.954Z,96604.84
2023-05-10T10:37:57.481Z,96603.53
2023-05-10T10:40:44.173Z,96603.84
2023-05-10T10:43:31.305Z,96599.84
2023-05-10T10:46:18.898Z,96596.41
2023-05-10T10:49:11.879Z,96600.44
2023-05-10T10:52:14.171Z,96597.88
2023-05-10T10:55:09.245Z,96598.19
2023-05-10T10:58:01.639Z,96595.53
2023-05-10T11:00:48.703Z,96591.25
2023-05-10T11:03:35.439Z,96579.97
2023-05-10T11:06:35.345Z,96585.44
2023-05-10T11:09:22.167Z,96576.81
2023-05-10T11:12:09.394Z,96584.19
2023-05-10T11:14:57.934Z,96587.19
2023-05-10T11:17:44.744Z,96581.28
2023-05-10T11:20:39.345Z,96583.44
2023-05-10T11:23:30.629Z,96578.63
2023-05-10T11:26:17.396Z,96586.22
2023-05-10T11:29:05.876Z,96584.91
2023-05-10T11:31:52.758Z,96587.31
2023-05-10T11:34:39.508Z,96587.06
2023-05-10T11:37:29.144Z,96590.59
2023-05-10T11:40:16.020Z,96585.22
2023-05-10T11:43:03.620Z,96595.72
2023-05-10T11:45:50.364Z,96595.47
2023-05-10T11:48:37.285Z,96600.03
2023-05-10T11:51:24.469Z,96614.25
2023-05-10T11:54:11.924Z,96618.41
2023-05-10T11:56:58.653Z,96628.56
2023-05-10T11:59:45.357Z,96627.19
2023-05-10T12:02:32.257Z,96625.69
2023-05-10T12:05:19.054Z,96633.84
2023-05-10T12:08:15.303Z,96629.97
2023-05-10T12:11:05.744Z,96635.00
2023-05-10T12:13:52.694Z,96621.44
2023-05-10T12:16:39.490Z,96623.66
2023-05-10T12:19:26.181Z,96624.03
2023-05-10T12:22:12.875Z,96620.34
2023-05-10T12:24:59.612Z,96618.50
2023-05-10T12:27:56.659Z,96627.72
2023-05-10T12:30:43.388Z,96622.63
2023-05-10T12:33:43.777Z,96624.81
2023-05-10T12:36:30.679Z,96618.91
2023-05-10T12:39:17.458Z,96621.09
2023-05-10T12:42:04.217Z,96619.78
2023-05-10T12:44:51.010Z,96628.69
2023-05-10T12:47:38.412Z,96624.69
2023-05-10T12:50:25.708Z,96627.09
2023-05-10T12:53:12.730Z,96624.13
2023-05-10T12:55:59.513Z,96626.84
2023-05-10T12:58:49.332Z,96628.22
2023-05-10T13:01:36.261Z,96631.72
2023-05-10T13:04:23.075Z,96630.69
2023-05-10T13:07:10.443Z,96639.59
2023-05-10T13:09:57.192Z,96642.28
2023-05-10T13:12:43.916Z,96635.81
2023-05-10T13:15:32.814Z,96633.91
2023-05-10T13:18:19.609Z,96632.84
2023-05-10T13:21:06.744Z,96636.38
2023-05-10T13:23:53.850Z,96631.53
2023-05-10T13:26:41.181Z,96642.06
2023-05-10T13:29:27.890Z,96629.41
2023-05-10T13:32:14.620Z,96635.59
2023-05-10T13:35:01.368Z,96631.03
2023-05-10T13:37:48.125Z,96622.13
2023-05-10T13:40:35.065Z,96621.84
2023-05-10T13:43:21.771Z,96622.41
2023-05-10T13:46:08.548Z,96620.25
2023-05-10T13:48:57.903Z,96623.81
2023-05-10T13:51:44.702Z,96617.34
2023-05-10T13:54:32.583Z,96611.66
2023-05-10T13:57:19.475Z,96613.31
2023-05-10T14:00:06.921Z,96616.00
2023-05-10T14:02:53.744Z,96619.53
2023-05-10T14:05:40.746Z,96618.19
2023-05-10T14:08:28.083Z,96622.56
2023-05-10T14:11:14.914Z,96619.00
2023-05-10T14:14:01.647Z,96617.97
2023-05-10T14:16:48.438Z,96612.31
2023-05-10T14:19:35.303Z,96619.88
2023-05-10T14:22:22.168Z,96620.97
2023-05-10T14:25:08.961Z,96625.00
2023-05-10T14:27:55.787Z,96616.09
2023-05-10T14:30:42.945Z,96625.84
2023-05-10T14:33:29.742Z,96634.75
2023-05-10T14:36:16.802Z,96636.38
2023-05-10T14:39:03.907Z,96632.06
2023-05-10T14:41:52.330Z,96637.44
2023-05-10T14:44:39.123Z,96635.56
2023-05-10T14:47:25.855Z,96637.19
2023-05-10T14:50:18.923Z,96638.00
2023-05-10T14:53:19.008Z,96634.47
2023-05-10T14:56:06.028Z,96641.75
2023-05-10T14:58:52.752Z,96641.75
2023-05-10T15:01:42.243Z,96642.56
2023-05-10T15:04:29.613Z,96642.56
2023-05-10T15:07:18.400Z,96652.28
2023-05-10T15:10:05.583Z,96640.44
2023-05-10T15:12:52.397Z,96641.50
2023-05-10T15:15:39.148Z,96651.47
2023-05-10T15:18:25.923Z,96654.44
2023-05-10T15:21:12.736Z,96653.06
2023-05-10T15:23:59.437Z,96651.44
2023-05-10T15:26:46.393Z,96647.38
2023-05-10T15:29:33.490Z,96655.47
2023-05-10T15:32:20.247Z,96645.75
2023-05-10T15:35:08.509Z,96651.16
2023-05-10T15:37:55.184Z,96652.22
2023-05-10T15:40:41.965Z,96647.88
2023-05-10T15:43:28.824Z,96646.25
2023-05-10T15:46:15.736Z,96643.28
2023-05-10T15:49:02.537Z,96650.06
2023-05-10T15:51:49.418Z,96647.94
2023-05-10T15:54:39.322Z,96646.88
2023-05-10T15:57:26.112Z,96654.69
2023-05-10T16:00:13.364Z,96652.81
2023-05-10T16:03:00.289Z,96650.38
2023-05-10T16:05:47.097Z,96653.34
2023-05-10T16:08:33.980Z,96653.34
2023-05-10T16:11:21.508Z,96659.53
2023-05-10T16:14:08.305Z,96659.53
2023-05-10T16:16:55.106Z,96659.53
2023-05-10T16:19:41.912Z,96668.44
2023-05-10T16:22:29.057Z,96663.03
2023-05-10T16:25:15.954Z,96664.38
2023-05-10T16:28:03.098Z,96663.31
2023-05-10T16:30:49.857Z,96668.94
2023-05-10T16:33:37.280Z,96675.44
2023-05-10T16:36:24.297Z,96671.09
2023-05-10T16:39:12.641Z,96673.81
2023-05-10T16:41:59.711Z,96679.44
2023-05-10T16:44:46.475Z,96677.22
2023-05-10T16:47:33.650Z,96679.09
2023-05-10T16:50:20.638Z,96679.59
2023-05-10T16:53:07.439Z,96678.78
2023-05-10T16:55:54.182Z,96683.38
2023-05-10T16:58:40.860Z,96685.53
2023-05-10T17:01:27.640Z,96689.53
2023-05-10T17:04:14.406Z,96687.66
2023-05-10T17:07:01.120Z,96700.34
2023-05-10T17:09:47.862Z,96703.28
2023-05-10T17:12:34.827Z,96698.16
2023-05-10T17:15:21.738Z,96699.22
2023-05-10T17:18:10.321Z,96709.44
2023-05-10T17:20:57.393Z,96714.00
2023-05-10T17:23:44.180Z,96703.50
2023-05-10T17:26:30.916Z,96716.13
2023-05-10T17:29:17.597Z,96712.91
2023-05-10T17:32:04.451Z,96717.72
2023-05-10T17:34:51.644Z,96718.78
2023-05-10T17:37:38.325Z,96731.47
2023-05-10T17:40:24.989Z,96734.66
2023-05-10T17:43:11.708Z,96744.38
2023-05-10T17:45:58.390Z,96738.44
2023-05-10T17:48:47.228Z,96742.16
2023-05-10T17:51:34.053Z,96741.03
2023-05-10T17:54:20.757Z,96754.78
2023-05-10T17:57:07.829Z,96743.19
2023-05-10T17:59:54.493Z,96738.88
2023-05-10T18:02:41.216Z,96748.00
2023-05-10T18:05:28.341Z,96746.66
2023-05-10T18:08:15.646Z,96746.34
2023-05-10T18:11:02.418Z,96751.41
2023-05-10T18:13:49.198Z,96750.03
2023-05-10T18:16:36.035Z,96753.22
2023-05-10T18:19:24.925Z,96746.44
2023-05-10T18:22:11.714Z,96751.50
2023-05-10T18:24:58.713Z,96756.34
2023-05-10T18:27:45.435Z,96761.41
2023-05-10T18:30:32.410Z,96766.50
2023-05-10T18:33:19.163Z,96767.78
2023-05-10T18:36:05.833Z,96771.78
2023-05-10T18:38:52.540Z,96770.44
2023-05-10T18:41:39.307Z,96769.03
2023-05-10T18:44:26.989Z,96769.31
2023-05-10T18:47:13.674Z,96769.78
2023-05-10T18:50:00.584Z,96765.69
2023-05-10T18:52:47.449Z,96772.38
2023-05-10T18:55:34.214Z,96775.34
2023-05-10T18:58:20.911Z,96783.63
2023-05-10T19:01:08.894Z,96785.75
2023-05-10T19:03:55.618Z,96782.25
2023-05-10T19:06:42.333Z,96784.63
2023-05-10T19:09:29.007Z,96785.94
2023-05-10T19:12:15.780Z,96792.38
2023-05-10T19:15:02.592Z,96800.69
2023-05-10T19:17:50.292Z,96793.69
2023-05-10T19:20:38.516Z,96796.84
2023-05-10T19:23:29.127Z,96801.69
2023-05-10T19:26:15.941Z,96800.03
2023-05-10T19:29:04.102Z,96812.94
2023-05-10T19:31:52.408Z,96813.19
2023-05-10T19:34:39.273Z,96806.44
2023-05-10T19:37:26.192Z,96808.31
2023-05-10T19:40:14.913Z,96812.28
2023-05-10T19:43:01.950Z,96814.41
2023-05-10T19:45:48.703Z,96811.97
2023-05-10T19:48:35.443Z,96807.66
2023-05-10T19:51:22.293Z,96813.50
2023-05-10T19:54:08.958Z,96814.56
2023-05-10T19:56:55.699Z,96812.13
2023-05-10T19:59:42.843Z,96811.56
2023-05-10T20:02:29.960Z,96804.78
2023-05-10T20:05:17.058Z,96809.34
2023-05-10T20:08:03.980Z,96810.66
2023-05-10T20:10:50.751Z,96803.88
2023-05-10T20:13:37.661Z,96810.31
2023-05-10T20:16:26.582Z,96815.13
2023-05-10T20:19:13.852Z,96811.59
2023-05-10T20:22:00.794Z,96808.34
2023-05-10T20:24:48.149Z,96813.97
2023-05-10T20:27:34.804Z,96816.91
2023-05-10T20:30:21.554Z,96814.44
2023-05-10T20:33:09.340Z,96810.38
2023-05-10T20:35:56.121Z,96811.41
2023-05-10T20:38:42.868Z,96805.47
2023-05-10T20:41:29.626Z,96805.47
2023-05-10T20:44:16.367Z,96806.78
2023-05-10T20:47:03.093Z,96818.59
2023-05-10T20:49:49.882Z,96811.81
2023-05-10T20:52:36.603Z,96812.88
2023-05-10T20:55:23.326Z,96812.28
2023-05-10T20:58:10.429Z,96809.03
2023-05-10T21:00:57.089Z,96812.81
2023-05-10T21:03:43.830Z,96809.53
2023-05-10T21:06:32.028Z,96810.59
2023-05-10T21:09:18.830Z,96805.44
2023-05-10T21:12:05.641Z,96809.19
2023-05-10T21:14:52.407Z,96797.63
2023-05-10T21:17:39.220Z,96798.91
2023-05-10T21:20:25.993Z,96796.22
2023-05-10T21:23:12.790Z,96789.44
2023-05-10T21:25:59.468Z,96796.13
2023-05-10T21:28:46.221Z,96799.03
2023-05-10T21:31:33.009Z,96794.72
2023-05-10T21:34:20.619Z,96793.09
2023-05-10T21:37:07.348Z,96796.84
2023-05-10T21:39:54.193Z,96794.38
2023-05-10T21:42:40.866Z,96798.34
2023-05-10T21:45:31.639Z,96789.47
2023-05-10T21:48:18.368Z,96797.78
2023-05-10T21:51:05.073Z,96800.69
2023-05-10T21:53:53.575Z,96794.75
2023-05-10T21:56:40.789Z,96796.63
2023-05-10T21:59:27.514Z,96790.66
2023-05-10T22:02:14.236Z,96796.28
2023-05-10T22:05:01.410Z,96796.50
2023-05-10T22:07:48.164Z,96794.28
2023-05-10T22:10:34.932Z,96792.44
2023-05-10T22:13:21.659Z,96788.34
2023-05-10T22:16:08.340Z,96794.81
2023-05-10T22:18:55.142Z,96791.53
2023-05-10T22:21:41.846Z,96791.78
2023-05-10T22:24:28.570Z,96789.31
2023-05-10T22:27:15.263Z,96789.31
2023-05-10T22:30:02.147Z,96785.22
2023-05-10T22:32:48.990Z,96789.78
2023-05-10T22:35:35.908Z,96787.34
2023-05-10T22:38:22.669Z,96784.06
2023-05-10T22:41:09.344Z,96785.13
2023-05-10T22:43:55.995Z,96783.72
2023-05-10T22:46:42.759Z,96780.22
2023-05-10T22:49:29.651Z,96779.41
2023-05-10T22:52:16.391Z,96789.56
2023-05-10T22:55:03.203Z,96781.75
2023-05-10T22:57:49.888Z,96780.13
2023-05-10T23:00:36.656Z,96783.88
2023-05-10T23:03:23.387Z,96778.97
2023-05-10T23:06:10.159Z,96781.88
2023-05-10T23:08:56.945Z,96784.81
2023-05-10T23:11:43.628Z,96793.69
2023-05-10T23:14:30.432Z,96787.72
2023-05-10T23:17:17.081Z,96789.84
2023-05-10T23:20:03.981Z,96786.34
2023-05-10T23:22:50.702Z,96789.25
2023-05-10T23:25:37.856Z,96783.06
2023-05-10T23:28:24.556Z,96787.88
2023-05-10T23:31:11.254Z,96788.91
2023-05-10T23:33:57.981Z,96789.16
2023-05-10T23:36:44.696Z,96789.63
2023-05-10T23:39:31.887Z,96779.94
2023-05-10T23:42:18.605Z,96784.50
2023-05-10T23:45:05.461Z,96782.84
2023-05-10T23:47:52.739Z,96780.97
2023-05-10T23:50:43.998Z,96783.09
2023-05-10T23:53:30.725Z,96783.31
2023-05-10T23:56:17.572Z,96775.75
2023-05-10T23:59:05.917Z,96776.78
